CheckWX is a tool to help pilots better visualize weather data.  It is not intended as a substitute for an official pre-flight weather briefing.

08:12:35 UTC

KGPZ METAR
Grand Rapids / Itasca Co-Gordon Newstrom Field Airport
Grand Rapids, Minnesota, USA
Current

17 mins ago

KGPZ 220756Z AUTO 30004KT 9SM -SN OVC023 M07/M09 A3028 RMK AO2 SNB28 SLP278 P0000 T10671089 FZRANO
Observed
Feb-22 @ 07:56 UTC
Wind
  • 300° at 4 KTS
Visibility
9 SM
Flight Rules
MVFR
Conditions
Light Snow
Cloud Levels
  • Overcast at 2,300' AGL
Temperature
-7°C / 19°F
Dewpoint
-9°C / 16°F
Humidity
86%
Altimeter
30.28" Hg
Pressure
1027.8 hPa
Current Rain
0.01"
Previous

1 hour ago

KGPZ 220656Z AUTO VRB03KT 10SM OVC023 M06/M09 A3027 RMK AO2 SLP276 T10611089 FZRANO
Observed
Feb-22 @ 06:56 UTC
Wind
  • Variable at 3 KTS
Visibility
10 SM
Flight Rules
MVFR
Cloud Levels
  • Overcast at 2,300' AGL
Temperature
-6°C / 21°F
Dewpoint
-9°C / 16°F
Humidity
80%
Altimeter
30.27" Hg
Pressure
1027.6 hPa
Previous

2 hours ago

KGPZ 220556Z AUTO VRB05KT 10SM OVC025 M05/M08 A3026 RMK AO2 SLP270 T10501078 11033 21094 400061144 51016 FZRANO
Observed
Feb-22 @ 05:56 UTC
Wind
  • Variable at 5 KTS
Visibility
10 SM
Flight Rules
MVFR
Cloud Levels
  • Overcast at 2,500' AGL
Temperature
-5°C / 23°F
Dewpoint
-8°C / 18°F
Humidity
80%
Altimeter
30.26" Hg
Pressure
1027 hPa